Time;durP1;ratioP1;P1;durP2;ratioP2;P2;SDS_P1;SDS_P2;PMS_P1;PMS_P2;Temp;Humidity;BMP_temperature;BMP_pressure;BME280_temperature;BME280_humidity;BME280_pressure;Samples;Min_cycle;Max_cycle;Signal;HPM_P1;HPM_P2
2021/12/28 00:00:17;;;;;;;13.07;11.03;;;;;;;;;;5073824;28;20434;-61
2021/12/28 00:02:47;;;;;;;12.30;10.50;;;;;;;;;;5073806;28;20947;-60
2021/12/28 00:05:14;;;;;;;11.37;10.17;;;;;;;;;;5073827;28;20454;-60
2021/12/28 00:07:40;;;;;;;12.50;10.90;;;;;;;;;;5073788;28;20437;-60
2021/12/28 00:10:08;;;;;;;12.30;11.00;;;;;;;;;;5073473;28;20949;-60
2021/12/28 00:12:37;;;;;;;13.27;10.93;;;;;;;;;;5073594;28;20446;-60
2021/12/28 00:15:07;;;;;;;12.83;11.30;;;;;;;;;;5073401;28;20464;-60
2021/12/28 00:20:19;;;;;;;13.63;11.30;;;;;;;;;;5073025;28;20985;-60
2021/12/28 00:22:45;;;;;;;12.33;10.93;;;;;;;;;;5072957;28;20477;-60
2021/12/28 00:25:11;;;;;;;13.00;11.20;;;;;;;;;;5072888;28;20462;-61
2021/12/28 00:27:37;;;;;;;13.43;11.90;;;;;;;;;;5072743;28;20438;-62
2021/12/28 00:30:06;;;;;;;12.10;10.90;;;;;;;;;;5072519;28;20947;-60
2021/12/28 00:32:32;;;;;;;14.53;11.83;;;;;;;;;;5072814;28;20449;-61
2021/12/28 00:34:58;;;;;;;13.23;11.60;;;;;;;;;;5072426;28;20444;-60
2021/12/28 00:37:24;;;;;;;12.73;11.20;;;;;;;;;;5072561;28;20465;-61
2021/12/28 00:39:50;;;;;;;12.47;10.73;;;;;;;;;;5072254;28;20434;-61
2021/12/28 00:42:16;;;;;;;13.10;11.20;;;;;;;;;;5072427;28;20685;-61
2021/12/28 00:44:42;;;;;;;12.73;11.43;;;;;;;;;;5072688;28;20468;-61
2021/12/28 00:47:09;;;;;;;13.40;11.37;;;;;;;;;;5072208;28;20245;-60
2021/12/28 00:49:35;;;;;;;14.27;12.10;;;;;;;;;;5072103;28;20196;-60
2021/12/28 00:52:01;;;;;;;13.07;11.33;;;;;;;;;;5071541;28;20430;-61
2021/12/28 00:54:27;;;;;;;14.50;12.33;;;;;;;;;;5070413;28;20430;-60
2021/12/28 00:56:53;;;;;;;13.63;11.80;;;;;;;;;;5071959;28;20908;-60
2021/12/28 00:59:19;;;;;;;13.60;11.10;;;;;;;;;;5072034;28;20239;-60
2021/12/28 01:01:47;;;;;;;13.37;11.97;;;;;;;;;;5071959;28;20810;-60
2021/12/28 01:04:14;;;;;;;12.90;11.50;;;;;;;;;;5071912;28;20191;-61
2021/12/28 01:06:40;;;;;;;14.03;11.47;;;;;;;;;;5071782;28;20553;-61
2021/12/28 01:09:06;;;;;;;13.83;12.33;;;;;;;;;;5070989;28;20458;-62
2021/12/28 01:11:32;;;;;;;14.07;11.07;;;;;;;;;;5072194;28;20425;-61
2021/12/28 01:13:58;;;;;;;14.73;12.57;;;;;;;;;;5072145;28;20877;-63
2021/12/28 01:16:24;;;;;;;14.70;12.00;;;;;;;;;;5072189;28;20223;-62
2021/12/28 01:18:51;;;;;;;13.53;11.77;;;;;;;;;;5070113;28;20223;-63
2021/12/28 01:21:19;;;;;;;14.97;12.60;;;;;;;;;;5072112;28;20453;-61
2021/12/28 01:23:45;;;;;;;14.60;12.70;;;;;;;;;;5072215;28;20436;-61
2021/12/28 01:26:11;;;;;;;15.37;12.53;;;;;;;;;;5072053;28;20804;-61
2021/12/28 01:28:37;;;;;;;15.27;12.43;;;;;;;;;;5072007;28;20188;-61
2021/12/28 01:31:03;;;;;;;15.13;12.53;;;;;;;;;;5071970;28;20489;-61
2021/12/28 01:33:30;;;;;;;15.73;12.70;;;;;;;;;;5070188;28;20937;-62
2021/12/28 01:35:56;;;;;;;14.97;12.53;;;;;;;;;;5070009;28;20442;-61
2021/12/28 01:38:24;;;;;;;14.33;12.60;;;;;;;;;;5071476;28;20512;-61
2021/12/28 01:40:50;;;;;;;15.30;12.10;;;;;;;;;;5071808;28;20477;-61
2021/12/28 01:43:17;;;;;;;15.47;12.90;;;;;;;;;;5071958;28;20445;-61
2021/12/28 01:45:45;;;;;;;15.33;12.40;;;;;;;;;;5071968;28;20449;-61
2021/12/28 01:48:12;;;;;;;15.60;12.87;;;;;;;;;;5071775;28;20426;-61
2021/12/28 01:50:39;;;;;;;14.73;12.97;;;;;;;;;;5071916;28;20434;-61
2021/12/28 01:53:07;;;;;;;15.10;13.17;;;;;;;;;;5071612;28;20454;-61
2021/12/28 01:55:35;;;;;;;17.37;13.87;;;;;;;;;;5071327;28;20442;-61
2021/12/28 01:58:01;;;;;;;15.43;13.33;;;;;;;;;;5070254;28;20486;-61
2021/12/28 02:00:28;;;;;;;13.03;11.70;;;;;;;;;;5071604;28;20445;-60
2021/12/28 02:02:53;;;;;;;16.73;13.37;;;;;;;;;;5076948;28;20452;-61
2021/12/28 02:05:19;;;;;;;17.03;12.90;;;;;;;;;;5077946;28;20461;-61
2021/12/28 02:07:46;;;;;;;15.33;13.03;;;;;;;;;;5078413;28;20253;-61
2021/12/28 02:10:12;;;;;;;15.63;13.80;;;;;;;;;;5078128;28;20950;-61
2021/12/28 02:12:39;;;;;;;15.07;12.10;;;;;;;;;;5078272;28;20472;-60
2021/12/28 02:15:08;;;;;;;14.83;12.87;;;;;;;;;;5078204;28;20457;-61
2021/12/28 02:17:35;;;;;;;15.20;12.63;;;;;;;;;;5078064;28;20481;-61
2021/12/28 02:20:05;;;;;;;17.03;13.33;;;;;;;;;;5078042;28;20455;-61
2021/12/28 02:22:31;;;;;;;16.83;13.87;;;;;;;;;;5078150;28;20503;-61
2021/12/28 02:24:57;;;;;;;14.67;12.67;;;;;;;;;;5078152;28;20437;-60
2021/12/28 02:27:23;;;;;;;15.20;13.10;;;;;;;;;;5078206;28;20282;-60
2021/12/28 02:29:49;;;;;;;16.63;13.07;;;;;;;;;;5078090;28;20692;-60
2021/12/28 02:32:15;;;;;;;15.10;12.43;;;;;;;;;;5078040;28;20248;-61
2021/12/28 02:34:41;;;;;;;16.47;13.10;;;;;;;;;;5078007;28;20223;-61
2021/12/28 02:37:08;;;;;;;13.97;12.40;;;;;;;;;;5077915;28;20747;-60
2021/12/28 02:39:34;;;;;;;14.30;12.80;;;;;;;;;;5077774;28;20441;-61
2021/12/28 02:42:00;;;;;;;14.87;13.23;;;;;;;;;;5078051;28;20483;-60
2021/12/28 02:44:26;;;;;;;15.60;12.93;;;;;;;;;;5077956;28;20209;-60
2021/12/28 02:46:53;;;;;;;14.30;12.63;;;;;;;;;;5077977;28;20437;-61
2021/12/28 02:49:20;;;;;;;14.00;12.30;;;;;;;;;;5077916;28;20205;-60
2021/12/28 02:51:46;;;;;;;14.83;12.87;;;;;;;;;;5077885;28;20442;-60
2021/12/28 02:54:14;;;;;;;16.57;13.53;;;;;;;;;;5077852;28;20661;-61
2021/12/28 02:56:40;;;;;;;18.53;14.10;;;;;;;;;;5077907;28;20444;-62
2021/12/28 02:59:06;;;;;;;15.23;13.10;;;;;;;;;;5077477;28;20504;-61
2021/12/28 03:01:34;;;;;;;17.23;13.77;;;;;;;;;;5077963;28;20214;-61
2021/12/28 03:04:07;;;;;;;15.10;13.53;;;;;;;;;;5077669;28;20204;-60
2021/12/28 03:06:34;;;;;;;15.23;13.40;;;;;;;;;;5077793;28;20457;-61
2021/12/28 03:09:01;;;;;;;15.73;13.07;;;;;;;;;;5077573;28;20433;-60
2021/12/28 03:11:29;;;;;;;15.30;13.37;;;;;;;;;;5077841;28;20436;-60
2021/12/28 03:13:56;;;;;;;16.97;14.27;;;;;;;;;;5074366;28;20473;-61
2021/12/28 03:16:23;;;;;;;15.67;12.63;;;;;;;;;;5074513;28;20505;-61
2021/12/28 03:18:49;;;;;;;14.63;13.07;;;;;;;;;;5074289;28;21132;-61
2021/12/28 03:21:19;;;;;;;16.80;14.03;;;;;;;;;;5074599;28;20796;-61
2021/12/28 03:23:46;;;;;;;15.57;12.93;;;;;;;;;;5074774;28;20440;-61
2021/12/28 03:26:13;;;;;;;16.30;13.83;;;;;;;;;;5074378;28;20446;-60
2021/12/28 03:28:41;;;;;;;15.67;12.47;;;;;;;;;;5074488;28;20437;-61
2021/12/28 03:31:08;;;;;;;17.77;14.23;;;;;;;;;;5074276;28;20460;-61
2021/12/28 03:33:35;;;;;;;15.63;13.27;;;;;;;;;;5074436;28;20442;-61
2021/12/28 03:36:01;;;;;;;15.37;13.37;;;;;;;;;;5074235;28;20985;-61
2021/12/28 03:38:27;;;;;;;16.43;13.53;;;;;;;;;;5074258;28;20482;-61
2021/12/28 03:40:54;;;;;;;15.07;13.47;;;;;;;;;;5074002;28;20473;-61
2021/12/28 03:43:20;;;;;;;16.80;13.10;;;;;;;;;;5074015;28;20450;-61
2021/12/28 03:45:48;;;;;;;16.10;13.90;;;;;;;;;;5074155;28;20477;-61
2021/12/28 03:48:14;;;;;;;15.43;12.67;;;;;;;;;;5073986;28;20434;-61
2021/12/28 03:50:40;;;;;;;16.90;13.17;;;;;;;;;;5073935;28;20521;-61
2021/12/28 03:53:07;;;;;;;18.00;13.73;;;;;;;;;;5073510;28;20456;-61
2021/12/28 03:55:33;;;;;;;16.47;13.83;;;;;;;;;;5073794;28;20462;-61
2021/12/28 03:58:00;;;;;;;16.83;13.57;;;;;;;;;;5073367;28;20975;-61
2021/12/28 04:00:28;;;;;;;14.23;12.50;;;;;;;;;;5073496;28;21140;-61
2021/12/28 04:02:55;;;;;;;16.17;13.00;;;;;;;;;;5073541;28;20932;-61
2021/12/28 04:05:21;;;;;;;15.03;12.27;;;;;;;;;;5073498;28;20457;-61
2021/12/28 04:07:48;;;;;;;15.33;13.30;;;;;;;;;;5073702;28;20441;-61
2021/12/28 04:10:16;;;;;;;15.07;13.47;;;;;;;;;;5073454;28;20437;-60
2021/12/28 04:12:42;;;;;;;15.97;12.70;;;;;;;;;;5073397;28;20442;-61
2021/12/28 04:15:09;;;;;;;16.27;13.80;;;;;;;;;;5073279;28;20456;-61
2021/12/28 04:17:37;;;;;;;16.17;12.67;;;;;;;;;;5073148;28;20474;-61
2021/12/28 04:20:06;;;;;;;14.67;12.37;;;;;;;;;;5073024;28;20434;-61
2021/12/28 04:22:33;;;;;;;14.03;12.43;;;;;;;;;;5073117;28;20949;-61
2021/12/28 04:24:59;;;;;;;15.00;11.83;;;;;;;;;;5072652;28;20429;-62
2021/12/28 04:27:24;;;;;;;16.07;12.97;;;;;;;;;;5072984;28;20441;-60
2021/12/28 04:29:50;;;;;;;14.60;13.07;;;;;;;;;;5072974;28;20195;-61
2021/12/28 04:32:17;;;;;;;15.57;12.13;;;;;;;;;;5072749;28;20207;-60
2021/12/28 04:34:42;;;;;;;12.93;11.50;;;;;;;;;;5072907;28;20195;-61
2021/12/28 04:37:10;;;;;;;13.90;11.77;;;;;;;;;;5073375;28;20756;-61
2021/12/28 04:39:36;;;;;;;14.37;11.67;;;;;;;;;;5072606;28;20262;-61
2021/12/28 04:42:02;;;;;;;15.43;12.03;;;;;;;;;;5072651;28;20472;-61
2021/12/28 04:44:28;;;;;;;13.00;11.60;;;;;;;;;;5072601;28;20441;-61
2021/12/28 04:46:55;;;;;;;13.27;11.87;;;;;;;;;;5072307;28;20525;-61
2021/12/28 04:49:23;;;;;;;14.53;12.87;;;;;;;;;;5072430;28;20920;-61
2021/12/28 04:51:49;;;;;;;13.77;11.90;;;;;;;;;;5072604;28;20434;-61
2021/12/28 04:54:18;;;;;;;13.70;11.77;;;;;;;;;;5072511;28;20430;-61
2021/12/28 04:56:45;;;;;;;13.63;11.93;;;;;;;;;;5072502;28;20434;-61
2021/12/28 04:59:12;;;;;;;13.43;11.97;;;;;;;;;;5072237;28;20924;-61
2021/12/28 05:01:38;;;;;;;13.93;11.93;;;;;;;;;;5072473;28;20449;-61
2021/12/28 05:04:04;;;;;;;15.13;12.33;;;;;;;;;;5072294;28;20430;-60
2021/12/28 05:06:30;;;;;;;14.03;12.13;;;;;;;;;;5072502;28;20234;-61
2021/12/28 05:08:56;;;;;;;13.37;11.67;;;;;;;;;;5072225;28;20449;-61
2021/12/28 05:11:24;;;;;;;14.43;11.77;;;;;;;;;;5072189;28;20928;-61
2021/12/28 05:13:50;;;;;;;14.00;11.83;;;;;;;;;;5072147;28;20821;-60
2021/12/28 05:16:16;;;;;;;12.67;11.37;;;;;;;;;;5072127;28;20456;-61
2021/12/28 05:18:42;;;;;;;12.53;11.23;;;;;;;;;;5071970;28;20523;-61
2021/12/28 05:21:09;;;;;;;12.63;10.97;;;;;;;;;;5071877;28;20436;-61
2021/12/28 05:23:35;;;;;;;12.23;10.87;;;;;;;;;;5071660;28;20944;-61
2021/12/28 05:26:01;;;;;;;13.37;11.47;;;;;;;;;;5071875;28;20480;-61
2021/12/28 05:28:28;;;;;;;12.40;11.00;;;;;;;;;;5071898;28;20484;-60
2021/12/28 05:30:54;;;;;;;12.67;11.37;;;;;;;;;;5071929;28;20465;-61
2021/12/28 05:33:21;;;;;;;11.57;10.47;;;;;;;;;;5072093;28;20517;-61
2021/12/28 05:35:47;;;;;;;12.80;11.50;;;;;;;;;;5071582;28;20430;-60
2021/12/28 05:38:13;;;;;;;13.50;11.57;;;;;;;;;;5071232;28;20546;-60
2021/12/28 05:40:39;;;;;;;11.50;10.30;;;;;;;;;;5071573;28;20231;-60
2021/12/28 05:43:05;;;;;;;13.43;11.03;;;;;;;;;;5071445;28;20208;-60
2021/12/28 05:45:33;;;;;;;11.77;10.50;;;;;;;;;;5071096;28;20442;-61
2021/12/28 05:47:59;;;;;;;12.43;10.93;;;;;;;;;;5070489;28;20471;-61
2021/12/28 05:50:25;;;;;;;12.27;10.97;;;;;;;;;;5071742;28;20437;-61
2021/12/28 05:52:51;;;;;;;12.47;11.17;;;;;;;;;;5071601;28;20434;-61
2021/12/28 05:55:17;;;;;;;13.63;11.30;;;;;;;;;;5071437;28;20422;-61
2021/12/28 05:57:43;;;;;;;12.33;11.00;;;;;;;;;;5071629;28;20662;-61
2021/12/28 06:00:10;;;;;;;11.73;10.53;;;;;;;;;;5071329;28;20227;-61
2021/12/28 06:02:38;;;;;;;11.73;10.43;;;;;;;;;;5071578;28;20199;-61
2021/12/28 06:05:04;;;;;;;12.97;9.93;;;;;;;;;;5071100;28;20461;-61
2021/12/28 06:07:30;;;;;;;14.00;10.77;;;;;;;;;;5071503;28;20453;-61
2021/12/28 06:09:57;;;;;;;11.70;10.50;;;;;;;;;;5071441;28;20430;-61
2021/12/28 06:12:23;;;;;;;11.77;10.47;;;;;;;;;;5071269;28;20434;-61
2021/12/28 06:14:49;;;;;;;12.10;10.20;;;;;;;;;;5071277;28;20920;-61
2021/12/28 06:17:16;;;;;;;13.43;10.67;;;;;;;;;;5071266;28;20841;-61
2021/12/28 06:19:44;;;;;;;11.60;10.40;;;;;;;;;;5071275;28;20478;-60
2021/12/28 06:22:09;;;;;;;10.80;9.70;;;;;;;;;;5071331;28;20449;-61
2021/12/28 06:24:35;;;;;;;11.53;9.73;;;;;;;;;;5071587;28;20456;-61
2021/12/28 06:27:01;;;;;;;11.73;10.43;;;;;;;;;;5071487;28;20226;-60
2021/12/28 06:29:27;;;;;;;11.40;10.20;;;;;;;;;;5071556;28;20187;-60
2021/12/28 06:31:53;;;;;;;12.13;10.83;;;;;;;;;;5071327;28;20274;-61
2021/12/28 06:34:19;;;;;;;11.43;10.23;;;;;;;;;;5071162;28;21024;-61
2021/12/28 06:36:47;;;;;;;11.60;10.40;;;;;;;;;;5071271;28;20404;-61
2021/12/28 06:39:13;;;;;;;10.70;9.60;;;;;;;;;;5071240;28;20834;-61
2021/12/28 06:41:39;;;;;;;13.40;11.23;;;;;;;;;;5071206;28;20462;-61
2021/12/28 06:44:06;;;;;;;13.13;11.00;;;;;;;;;;5071264;28;20928;-61
2021/12/28 06:46:32;;;;;;;15.27;11.33;;;;;;;;;;5071346;28;20434;-61
2021/12/28 06:48:58;;;;;;;14.63;11.30;;;;;;;;;;5073799;28;20449;-61
2021/12/28 06:51:24;;;;;;;13.07;10.90;;;;;;;;;;5074944;28;20197;-61
2021/12/28 06:53:51;;;;;;;14.30;11.40;;;;;;;;;;5074791;28;20204;-62
2021/12/28 06:56:17;;;;;;;12.40;10.60;;;;;;;;;;5074638;28;20442;-61
2021/12/28 06:58:43;;;;;;;15.30;11.07;;;;;;;;;;5074856;28;20478;-61
2021/12/28 07:01:09;;;;;;;13.77;9.50;;;;;;;;;;5074426;28;20231;-61
2021/12/28 07:03:35;;;;;;;11.77;10.27;;;;;;;;;;5074784;28;20438;-61
2021/12/28 07:06:02;;;;;;;11.97;10.33;;;;;;;;;;5074543;28;20457;-61
2021/12/28 07:08:28;;;;;;;13.67;10.57;;;;;;;;;;5074457;28;20491;-61
2021/12/28 07:10:55;;;;;;;13.23;10.90;;;;;;;;;;5070399;28;20455;-62
2021/12/28 07:13:22;;;;;;;12.57;10.80;;;;;;;;;;5073815;28;20453;-61
2021/12/28 07:15:48;;;;;;;14.03;10.70;;;;;;;;;;5073682;28;20446;-61
2021/12/28 07:18:14;;;;;;;12.07;9.67;;;;;;;;;;5073690;28;20473;-61
2021/12/28 07:20:40;;;;;;;11.20;10.00;;;;;;;;;;5074420;28;20199;-61
2021/12/28 07:23:06;;;;;;;11.73;10.07;;;;;;;;;;5074185;28;20442;-61
2021/12/28 07:25:32;;;;;;;10.67;9.23;;;;;;;;;;5074191;28;20286;-60
2021/12/28 07:27:59;;;;;;;11.13;9.33;;;;;;;;;;5073962;28;20505;-63
2021/12/28 07:30:25;;;;;;;10.77;9.60;;;;;;;;;;5074199;28;20449;-61
2021/12/28 07:32:51;;;;;;;13.17;10.33;;;;;;;;;;5074084;28;20951;-61
2021/12/28 07:35:17;;;;;;;12.50;10.17;;;;;;;;;;5073890;28;20457;-61
2021/12/28 07:37:43;;;;;;;12.77;11.40;;;;;;;;;;5073992;28;20187;-60
2021/12/28 07:40:10;;;;;;;12.77;10.73;;;;;;;;;;5073787;28;20231;-61
2021/12/28 07:42:36;;;;;;;12.97;10.57;;;;;;;;;;5074334;28;20442;-61
2021/12/28 07:45:04;;;;;;;11.57;10.37;;;;;;;;;;5073924;28;20430;-60
2021/12/28 07:47:30;;;;;;;13.73;10.13;;;;;;;;;;5074073;28;20433;-60
2021/12/28 07:49:56;;;;;;;11.90;10.70;;;;;;;;;;5073864;28;20430;-60
2021/12/28 07:52:22;;;;;;;11.30;10.10;;;;;;;;;;5073891;28;20531;-60
2021/12/28 07:54:48;;;;;;;11.67;10.33;;;;;;;;;;5073701;28;20285;-61
2021/12/28 07:57:14;;;;;;;13.90;11.33;;;;;;;;;;5073787;28;20199;-61
2021/12/28 07:59:40;;;;;;;13.30;11.47;;;;;;;;;;5072819;28;20285;-61
2021/12/28 08:02:07;;;;;;;14.30;10.67;;;;;;;;;;5073233;28;20214;-61
2021/12/28 08:04:33;;;;;;;16.77;11.80;;;;;;;;;;5073596;28;20450;-60
2021/12/28 08:06:59;;;;;;;12.67;10.37;;;;;;;;;;5073504;28;20450;-60
2021/12/28 08:09:25;;;;;;;15.33;10.97;;;;;;;;;;5073319;28;20464;-60
2021/12/28 08:11:51;;;;;;;13.53;11.03;;;;;;;;;;5073463;28;20669;-60
2021/12/28 08:14:18;;;;;;;14.73;11.90;;;;;;;;;;5073305;28;20889;-60
2021/12/28 08:16:45;;;;;;;13.83;12.20;;;;;;;;;;5073490;28;20430;-60
2021/12/28 08:19:12;;;;;;;12.73;10.73;;;;;;;;;;5073040;28;20473;-60
2021/12/28 08:21:38;;;;;;;15.17;12.07;;;;;;;;;;5073125;28;20434;-60
2021/12/28 08:24:04;;;;;;;14.60;11.40;;;;;;;;;;5073284;28;20436;-60
2021/12/28 08:26:30;;;;;;;13.53;11.07;;;;;;;;;;5073141;28;20690;-60
2021/12/28 08:28:56;;;;;;;13.13;10.90;;;;;;;;;;5072855;28;20433;-60
2021/12/28 08:31:22;;;;;;;14.77;11.87;;;;;;;;;;5072848;28;20430;-60
2021/12/28 08:33:48;;;;;;;14.73;11.70;;;;;;;;;;5072899;28;20950;-60
2021/12/28 08:36:16;;;;;;;14.30;11.30;;;;;;;;;;5072836;28;20499;-60
2021/12/28 08:38:43;;;;;;;14.30;11.20;;;;;;;;;;5072904;28;20681;-60
2021/12/28 08:41:09;;;;;;;12.40;11.13;;;;;;;;;;5072214;28;20497;-60
2021/12/28 08:43:35;;;;;;;15.67;10.70;;;;;;;;;;5072806;28;20430;-61
2021/12/28 08:46:01;;;;;;;13.17;9.97;;;;;;;;;;5072381;28;20479;-60
2021/12/28 08:48:27;;;;;;;11.13;9.93;;;;;;;;;;5072380;28;20908;-60
2021/12/28 08:50:53;;;;;;;14.33;10.40;;;;;;;;;;5072480;28;20456;-61
2021/12/28 08:53:21;;;;;;;12.90;10.70;;;;;;;;;;5072233;28;20188;-61
2021/12/28 08:55:48;;;;;;;13.53;9.97;;;;;;;;;;5072470;28;20499;-61
2021/12/28 08:58:15;;;;;;;14.87;11.13;;;;;;;;;;5072194;28;20524;-61
2021/12/28 09:00:41;;;;;;;15.93;10.90;;;;;;;;;;5072228;28;20824;-61
2021/12/28 09:03:08;;;;;;;13.07;9.93;;;;;;;;;;5072441;28;20439;-61
2021/12/28 09:05:35;;;;;;;16.23;10.67;;;;;;;;;;5072298;28;20461;-61
2021/12/28 09:08:04;;;;;;;14.07;10.27;;;;;;;;;;5072299;28;20774;-61
2021/12/28 09:10:31;;;;;;;14.47;9.90;;;;;;;;;;5072145;28;20445;-61
2021/12/28 09:12:57;;;;;;;25.93;10.77;;;;;;;;;;5071786;28;20442;-62
2021/12/28 09:15:23;;;;;;;18.60;11.00;;;;;;;;;;5071858;28;20479;-61
2021/12/28 09:17:49;;;;;;;12.73;9.53;;;;;;;;;;5072031;28;20429;-61
2021/12/28 09:20:17;;;;;;;14.50;10.07;;;;;;;;;;5072222;28;20440;-62
2021/12/28 09:22:43;;;;;;;13.30;9.67;;;;;;;;;;5072160;28;20444;-61
2021/12/28 09:25:10;;;;;;;14.73;9.43;;;;;;;;;;5071807;28;20426;-60
2021/12/28 09:27:38;;;;;;;12.47;9.57;;;;;;;;;;5071774;28;20450;-59
2021/12/28 09:30:05;;;;;;;12.33;9.30;;;;;;;;;;5071883;28;20487;-62
2021/12/28 09:32:30;;;;;;;14.17;9.40;;;;;;;;;;5071599;28;20441;-60
2021/12/28 09:34:57;;;;;;;12.40;9.00;;;;;;;;;;5071728;28;20546;-58
2021/12/28 09:37:23;;;;;;;12.80;8.47;;;;;;;;;;5072065;28;20196;-57
2021/12/28 09:39:49;;;;;;;11.03;8.30;;;;;;;;;;5071644;28;20983;-58
2021/12/28 09:42:16;;;;;;;10.73;8.20;;;;;;;;;;5071124;28;20454;-59
2021/12/28 09:44:47;;;;;;;12.60;8.60;;;;;;;;;;5071811;28;20453;-59
2021/12/28 09:47:15;;;;;;;9.43;7.70;;;;;;;;;;5071906;28;20429;-68
2021/12/28 09:49:41;;;;;;;10.27;7.50;;;;;;;;;;5071949;28;20952;-59
2021/12/28 09:52:08;;;;;;;9.87;7.63;;;;;;;;;;5071761;28;20437;-59
2021/12/28 09:54:34;;;;;;;10.33;7.33;;;;;;;;;;5071858;28;20438;-58
2021/12/28 09:57:01;;;;;;;11.80;8.03;;;;;;;;;;5071863;28;20207;-57
2021/12/28 09:59:28;;;;;;;8.80;7.37;;;;;;;;;;5071577;28;20881;-59
2021/12/28 10:01:55;;;;;;;10.97;7.80;;;;;;;;;;5071794;28;20220;-59
2021/12/28 10:04:22;;;;;;;10.03;6.77;;;;;;;;;;5071471;28;20449;-59
2021/12/28 10:06:48;;;;;;;9.57;6.33;;;;;;;;;;5071711;28;20219;-60
2021/12/28 10:09:15;;;;;;;10.60;6.90;;;;;;;;;;5071589;28;20218;-59
2021/12/28 10:11:43;;;;;;;11.60;6.97;;;;;;;;;;5071663;28;20568;-60
2021/12/28 10:14:10;;;;;;;7.77;5.10;;;;;;;;;;5071722;28;20282;-60
2021/12/28 10:16:46;;;;;;;10.63;5.40;;;;;;;;;;5071704;28;20601;-59
2021/12/28 10:19:31;;;;;;;8.47;5.27;;;;;;;;;;5071509;28;20280;-61
2021/12/28 10:21:57;;;;;;;7.03;4.83;;;;;;;;;;5071729;28;20650;-61
2021/12/28 10:24:30;;;;;;;9.63;5.27;;;;;;;;;;5075582;28;20203;-61
2021/12/28 10:27:09;;;;;;;7.50;4.70;;;;;;;;;;5075620;28;20196;-61
2021/12/28 10:29:35;;;;;;;7.17;4.77;;;;;;;;;;5075938;28;20226;-61
2021/12/28 10:32:15;;;;;;;6.97;5.10;;;;;;;;;;5075553;28;20623;-61
2021/12/28 10:34:45;;;;;;;10.00;5.30;;;;;;;;;;5075481;28;20218;-61
2021/12/28 10:37:15;;;;;;;8.63;4.70;;;;;;;;;;5075224;28;20252;-61
2021/12/28 10:39:44;;;;;;;6.87;4.63;;;;;;;;;;5075169;28;20231;-61
2021/12/28 10:42:10;;;;;;;6.40;4.80;;;;;;;;;;5075239;28;20207;-61
2021/12/28 10:44:51;;;;;;;9.63;5.27;;;;;;;;;;5075200;28;20663;-61
2021/12/28 10:47:24;;;;;;;7.77;4.70;;;;;;;;;;5074489;28;20565;-60
2021/12/28 10:49:51;;;;;;;8.37;5.33;;;;;;;;;;5075001;28;20199;-61
2021/12/28 10:52:25;;;;;;;8.67;5.57;;;;;;;;;;5074820;28;20554;-60
2021/12/28 10:54:51;;;;;;;10.53;5.40;;;;;;;;;;5074562;28;20603;-61
2021/12/28 10:57:17;;;;;;;9.47;5.77;;;;;;;;;;5075371;28;20195;-61
2021/12/28 10:59:44;;;;;;;8.00;5.57;;;;;;;;;;5075037;28;20227;-61
2021/12/28 11:02:21;;;;;;;10.93;5.73;;;;;;;;;;5075002;28;20196;-60
2021/12/28 11:04:47;;;;;;;7.90;5.60;;;;;;;;;;5075009;28;20203;-60
2021/12/28 11:07:22;;;;;;;9.90;6.03;;;;;;;;;;5074693;28;20571;-59
2021/12/28 11:09:49;;;;;;;10.50;5.30;;;;;;;;;;5074801;28;20199;-60
2021/12/28 11:12:15;;;;;;;10.93;5.50;;;;;;;;;;5074762;28;20430;-59
2021/12/28 11:14:41;;;;;;;9.47;5.43;;;;;;;;;;5074426;28;20202;-59
2021/12/28 11:17:07;;;;;;;8.67;4.80;;;;;;;;;;5074437;28;20206;-58
2021/12/28 11:19:34;;;;;;;11.63;5.07;;;;;;;;;;5074463;28;20219;-58
2021/12/28 11:22:01;;;;;;;10.27;4.87;;;;;;;;;;5074643;28;20291;-59
2021/12/28 11:24:30;;;;;;;8.27;4.97;;;;;;;;;;5074247;28;20604;-59
2021/12/28 11:26:56;;;;;;;7.60;4.50;;;;;;;;;;5073844;28;20207;-59
2021/12/28 11:29:24;;;;;;;10.00;4.63;;;;;;;;;;5074263;28;20680;-59
2021/12/28 11:31:51;;;;;;;7.77;4.50;;;;;;;;;;5074304;28;20203;-59
2021/12/28 11:34:19;;;;;;;8.63;4.20;;;;;;;;;;5072982;28;20226;-59
2021/12/28 11:36:46;;;;;;;4.53;3.43;;;;;;;;;;5074697;28;20226;-59
2021/12/28 11:39:13;;;;;;;7.03;3.63;;;;;;;;;;5073886;28;20346;-59
2021/12/28 11:41:41;;;;;;;5.70;3.70;;;;;;;;;;5074071;28;20242;-59
2021/12/28 11:44:07;;;;;;;6.60;3.50;;;;;;;;;;5074069;28;20199;-59
2021/12/28 11:46:34;;;;;;;7.07;3.50;;;;;;;;;;5074101;28;20199;-60
2021/12/28 11:49:00;;;;;;;5.77;3.20;;;;;;;;;;5073922;28;20187;-59
2021/12/28 11:51:27;;;;;;;9.17;3.47;;;;;;;;;;5073487;28;20622;-58
2021/12/28 11:53:54;;;;;;;6.50;3.80;;;;;;;;;;5073657;28;20201;-58
2021/12/28 11:56:21;;;;;;;5.83;3.57;;;;;;;;;;5073194;28;20199;-59
2021/12/28 11:58:49;;;;;;;9.63;4.00;;;;;;;;;;5073479;28;20596;-58
2021/12/28 12:01:30;;;;;;;6.30;3.07;;;;;;;;;;5073517;28;20230;-58
2021/12/28 12:03:56;;;;;;;8.40;2.90;;;;;;;;;;5073418;28;20290;-59
2021/12/28 12:06:43;;;;;;;4.50;2.90;;;;;;;;;;5073292;28;20310;-59
2021/12/28 12:09:09;;;;;;;7.70;2.90;;;;;;;;;;5073231;28;20191;-58
2021/12/28 12:11:59;;;;;;;5.20;2.60;;;;;;;;;;5073314;28;20206;-60
2021/12/28 12:14:49;;;;;;;5.20;2.67;;;;;;;;;;5072864;28;20191;-59
2021/12/28 12:17:39;;;;;;;5.77;2.80;;;;;;;;;;5072593;28;20196;-59
2021/12/28 12:20:06;;;;;;;4.73;2.70;;;;;;;;;;5072889;28;20227;-59
2021/12/28 12:22:36;;;;;;;5.43;3.10;;;;;;;;;;5073200;28;20650;-59
2021/12/28 12:25:04;;;;;;;7.23;3.10;;;;;;;;;;5073040;28;20187;-59
2021/12/28 12:27:40;;;;;;;6.93;3.53;;;;;;;;;;5073315;28;20249;-59
2021/12/28 12:30:29;;;;;;;3.87;3.13;;;;;;;;;;5072511;28;20191;-59
2021/12/28 12:33:05;;;;;;;4.73;3.27;;;;;;;;;;5072517;28;20562;-59
2021/12/28 12:35:32;;;;;;;4.37;3.00;;;;;;;;;;5072826;28;20256;-59
2021/12/28 12:37:58;;;;;;;4.97;3.10;;;;;;;;;;5072496;28;20200;-59
2021/12/28 12:40:50;;;;;;;6.13;3.47;;;;;;;;;;5072347;28;20232;-58
2021/12/28 12:43:16;;;;;;;5.77;2.80;;;;;;;;;;5072477;28;20199;-59
2021/12/28 12:46:00;;;;;;;7.53;3.37;;;;;;;;;;5072356;28;20269;-59
2021/12/28 12:48:31;;;;;;;5.37;3.13;;;;;;;;;;5072125;28;20196;-59
2021/12/28 12:51:12;;;;;;;7.17;3.50;;;;;;;;;;5072070;28;20563;-60
2021/12/28 12:53:42;;;;;;;4.77;3.27;;;;;;;;;;5072204;28;20195;-62
2021/12/28 12:56:11;;;;;;;6.03;3.70;;;;;;;;;;5072618;28;20191;-63
2021/12/28 12:58:38;;;;;;;5.00;3.40;;;;;;;;;;5072521;28;20224;-60
2021/12/28 13:01:05;;;;;;;6.20;3.10;;;;;;;;;;5072450;28;20270;-60
2021/12/28 13:03:34;;;;;;;6.53;3.17;;;;;;;;;;5072542;28;20210;-60
2021/12/28 13:06:00;;;;;;;4.33;3.10;;;;;;;;;;5072213;28;20679;-59
2021/12/28 13:08:26;;;;;;;5.17;3.40;;;;;;;;;;5072404;28;20236;-58
2021/12/28 13:10:52;;;;;;;4.73;2.73;;;;;;;;;;5072496;28;20575;-61
2021/12/28 13:13:18;;;;;;;5.27;3.10;;;;;;;;;;5072220;28;20203;-61
2021/12/28 13:15:44;;;;;;;5.93;3.30;;;;;;;;;;5072325;28;20274;-59
2021/12/28 13:18:10;;;;;;;5.77;3.27;;;;;;;;;;5072074;28;20199;-58
2021/12/28 13:20:38;;;;;;;8.70;3.40;;;;;;;;;;5072297;28;20215;-58
2021/12/28 13:23:05;;;;;;;6.00;2.80;;;;;;;;;;5072201;28;20229;-58
2021/12/28 13:25:32;;;;;;;5.77;3.30;;;;;;;;;;5071974;28;20191;-59
2021/12/28 13:27:58;;;;;;;4.70;3.20;;;;;;;;;;5071865;28;20462;-59
2021/12/28 13:30:26;;;;;;;4.30;2.77;;;;;;;;;;5071845;28;20192;-61
2021/12/28 13:32:52;;;;;;;4.17;3.00;;;;;;;;;;5071924;28;20195;-59
2021/12/28 13:35:19;;;;;;;5.23;3.07;;;;;;;;;;5071886;28;20199;-58
2021/12/28 13:37:48;;;;;;;3.33;2.73;;;;;;;;;;5072111;28;20658;-60
2021/12/28 13:40:17;;;;;;;6.27;3.00;;;;;;;;;;5071838;28;20231;-59
2021/12/28 13:42:45;;;;;;;5.57;3.20;;;;;;;;;;5071700;28;20199;-58
2021/12/28 13:45:11;;;;;;;3.47;3.10;;;;;;;;;;5071693;28;20279;-60
2021/12/28 13:47:41;;;;;;;5.03;2.80;;;;;;;;;;5071437;28;20783;-59
2021/12/28 13:50:10;;;;;;;3.73;2.77;;;;;;;;;;5071886;28;20195;-60
2021/12/28 13:52:40;;;;;;;6.60;3.63;;;;;;;;;;5071860;28;20443;-59
2021/12/28 13:55:08;;;;;;;5.53;3.33;;;;;;;;;;5071728;28;20229;-59
2021/12/28 13:57:34;;;;;;;3.50;2.67;;;;;;;;;;5071174;28;20623;-59
2021/12/28 14:00:01;;;;;;;3.90;3.20;;;;;;;;;;5071497;28;20301;-59
2021/12/28 14:02:27;;;;;;;4.40;3.10;;;;;;;;;;5071444;28;20202;-59
2021/12/28 14:04:53;;;;;;;6.83;3.37;;;;;;;;;;5071678;28;20674;-60
2021/12/28 14:07:19;;;;;;;7.03;3.40;;;;;;;;;;5066377;28;20199;-59
2021/12/28 14:09:46;;;;;;;3.50;3.10;;;;;;;;;;5069734;28;20195;-59
2021/12/28 14:12:13;;;;;;;5.73;3.20;;;;;;;;;;5071292;28;20492;-59
2021/12/28 14:14:46;;;;;;;8.40;4.67;;;;;;;;;;5071376;28;20203;-60
2021/12/28 14:17:14;;;;;;;3.77;2.90;;;;;;;;;;5071130;28;20820;-60
2021/12/28 14:19:41;;;;;;;3.93;3.07;;;;;;;;;;5067606;28;20211;-61
2021/12/28 14:22:08;;;;;;;6.30;3.07;;;;;;;;;;5070801;28;20434;-59
2021/12/28 14:24:34;;;;;;;3.40;3.10;;;;;;;;;;5071524;28;20200;-61
2021/12/28 14:27:00;;;;;;;3.93;2.97;;;;;;;;;;5071541;28;20432;-61
2021/12/28 14:29:29;;;;;;;3.40;3.07;;;;;;;;;;5071279;28;20226;-62